Airfield :
LOGIN :

Register | Disclaimer

   EN    FR    IT 

 










Legend :    VFR   Marginal VFR   IFR   Intensive IFR   Very Intensive IFR
Visi :
Ceiling :
>= 8 km
>= 3000ft
5 to 8 km
1000 to 3000 ft
1500m to 5 km
500 to 1000 ft
800 to 1500m
200 to 500 ft
< 800m
< 200 ft
Symbols :   Thunderstorms  Fog  Heavy snow  Heavy precipitations  Wind > 20 kt
SIGMETs :     Misc.  Thunderstorms  Icing  Turbulence  Mountain Waves  Volcanic Ashes







- Airport Elevation : 1046 ft
- IATA code : NUE


EDDN - Nuremberg

CURRENT METAR :
  • 162150Z 12005KT CAVOK 11/10 Q1026

EXPIRED METARs :
  • 162120Z 11005KT CAVOK 11/10 Q1026
  • 162050Z 11007KT CAVOK 12/11 Q1026
  • 162020Z 10008KT CAVOK 13/11 Q1026
  • 161950Z 11006KT CAVOK 14/12 Q1026 NOSIG
  • 161920Z 10007KT CAVOK 14/12 Q1026 NOSIG

TAF TAF EDDN
Valid from the 16 at 18:00 until the 17 at 18:00 UTC


161700Z 1618/1718 11005KT CAVOK
PROB30
TEMPO 1702/1706 1200 BCFG
No reported NOTAMs for that airfield.



MET'MAP, your aeronautical weather chart ! - Copyright ORBIFLY December 2007 - Disclaimer

ORBIFLY MET'MAP TEAM :

Programming & Development : Alexandra Zaïnal
Concept & Development : Baudouin d'Aumeries
Co-Development & Prog : Marc-Olivier Méhu
Technical & hardware support : Manuel Goepfert

Contact : metmap@orbifly.com




SOURCES & CREDITS :

   NOAA